sensor_id;sensor_type;location;lat;lon;timestamp;temperature;humidity
44117;DHT22;29781;49.480;8.512;2024-03-25T00:01:13;7.50;99.90
44117;DHT22;29781;49.480;8.512;2024-03-25T00:03:39;7.40;99.90
44117;DHT22;29781;49.480;8.512;2024-03-25T00:06:04;7.40;99.90
44117;DHT22;29781;49.480;8.512;2024-03-25T00:08:30;7.50;99.90
44117;DHT22;29781;49.480;8.512;2024-03-25T00:10:55;7.60;99.90
44117;DHT22;29781;49.480;8.512;2024-03-25T00:13:21;7.70;99.90
44117;DHT22;29781;49.480;8.512;2024-03-25T00:15:47;7.70;99.90
44117;DHT22;29781;49.480;8.512;2024-03-25T00:18:12;7.70;99.90
44117;DHT22;29781;49.480;8.512;2024-03-25T00:20:38;7.70;99.90
44117;DHT22;29781;49.480;8.512;2024-03-25T00:23:04;7.70;99.90
44117;DHT22;29781;49.480;8.512;2024-03-25T00:25:29;7.70;99.90
44117;DHT22;29781;49.480;8.512;2024-03-25T00:27:55;7.60;99.90
44117;DHT22;29781;49.480;8.512;2024-03-25T00:30:22;7.50;99.90
44117;DHT22;29781;49.480;8.512;2024-03-25T00:32:47;7.30;99.90
44117;DHT22;29781;49.480;8.512;2024-03-25T00:35:13;7.30;99.90
44117;DHT22;29781;49.480;8.512;2024-03-25T00:37:38;7.30;99.90
44117;DHT22;29781;49.480;8.512;2024-03-25T00:40:04;7.10;99.90
44117;DHT22;29781;49.480;8.512;2024-03-25T00:42:32;7.00;99.90
44117;DHT22;29781;49.480;8.512;2024-03-25T00:44:58;7.00;99.90
44117;DHT22;29781;49.480;8.512;2024-03-25T00:47:24;7.00;99.90
44117;DHT22;29781;49.480;8.512;2024-03-25T00:49:49;7.10;99.90
44117;DHT22;29781;49.480;8.512;2024-03-25T00:52:15;7.00;99.90
44117;DHT22;29781;49.480;8.512;2024-03-25T00:54:40;7.00;99.90
44117;DHT22;29781;49.480;8.512;2024-03-25T00:57:05;7.10;99.90
44117;DHT22;29781;49.480;8.512;2024-03-25T00:59:31;7.10;99.90
44117;DHT22;29781;49.480;8.512;2024-03-25T01:01:56;7.10;99.90
44117;DHT22;29781;49.480;8.512;2024-03-25T01:04:22;7.10;99.90
44117;DHT22;29781;49.480;8.512;2024-03-25T01:06:48;7.10;99.90
44117;DHT22;29781;49.480;8.512;2024-03-25T01:09:14;7.10;99.90
44117;DHT22;29781;49.480;8.512;2024-03-25T01:11:39;7.00;99.90
44117;DHT22;29781;49.480;8.512;2024-03-25T01:14:05;6.80;99.90
44117;DHT22;29781;49.480;8.512;2024-03-25T01:16:31;6.70;99.90
44117;DHT22;29781;49.480;8.512;2024-03-25T01:18:57;6.70;99.90
44117;DHT22;29781;49.480;8.512;2024-03-25T01:21:24;6.80;99.90
44117;DHT22;29781;49.480;8.512;2024-03-25T01:23:50;6.80;99.90
44117;DHT22;29781;49.480;8.512;2024-03-25T01:26:15;6.90;99.90
44117;DHT22;29781;49.480;8.512;2024-03-25T01:28:42;7.00;99.90
44117;DHT22;29781;49.480;8.512;2024-03-25T01:31:07;7.10;99.90
44117;DHT22;29781;49.480;8.512;2024-03-25T01:33:33;7.00;99.90
44117;DHT22;29781;49.480;8.512;2024-03-25T01:35:59;6.90;99.90
44117;DHT22;29781;49.480;8.512;2024-03-25T01:38:25;6.90;99.90
44117;DHT22;29781;49.480;8.512;2024-03-25T01:40:50;7.00;99.90
44117;DHT22;29781;49.480;8.512;2024-03-25T01:43:16;7.00;99.90
44117;DHT22;29781;49.480;8.512;2024-03-25T01:45:42;6.90;99.90
44117;DHT22;29781;49.480;8.512;2024-03-25T01:48:08;7.00;99.90
44117;DHT22;29781;49.480;8.512;2024-03-25T01:50:42;7.10;99.90
44117;DHT22;29781;49.480;8.512;2024-03-25T01:53:09;7.00;99.90
44117;DHT22;29781;49.480;8.512;2024-03-25T01:55:35;6.80;99.90
44117;DHT22;29781;49.480;8.512;2024-03-25T01:58:02;6.80;99.90
44117;DHT22;29781;49.480;8.512;2024-03-25T02:00:29;6.80;99.90
44117;DHT22;29781;49.480;8.512;2024-03-25T02:02:55;7.00;99.90
44117;DHT22;29781;49.480;8.512;2024-03-25T02:05:22;7.10;99.90
44117;DHT22;29781;49.480;8.512;2024-03-25T02:07:48;7.10;99.90
44117;DHT22;29781;49.480;8.512;2024-03-25T02:10:15;7.00;99.90
44117;DHT22;29781;49.480;8.512;2024-03-25T02:12:45;6.90;99.90
44117;DHT22;29781;49.480;8.512;2024-03-25T02:15:12;6.90;99.90
44117;DHT22;29781;49.480;8.512;2024-03-25T02:17:41;6.90;99.90
44117;DHT22;29781;49.480;8.512;2024-03-25T02:20:07;6.80;99.90
44117;DHT22;29781;49.480;8.512;2024-03-25T02:22:36;6.70;99.90
44117;DHT22;29781;49.480;8.512;2024-03-25T02:25:06;6.70;99.90
44117;DHT22;29781;49.480;8.512;2024-03-25T02:27:31;6.70;99.90
44117;DHT22;29781;49.480;8.512;2024-03-25T02:30:07;6.70;99.90
44117;DHT22;29781;49.480;8.512;2024-03-25T02:32:36;6.60;99.90
44117;DHT22;29781;49.480;8.512;2024-03-25T02:35:04;6.60;99.90
44117;DHT22;29781;49.480;8.512;2024-03-25T02:37:30;6.60;99.90
44117;DHT22;29781;49.480;8.512;2024-03-25T02:39:58;6.60;99.90
44117;DHT22;29781;49.480;8.512;2024-03-25T02:42:28;6.50;99.90
44117;DHT22;29781;49.480;8.512;2024-03-25T02:44:57;6.50;99.90
44117;DHT22;29781;49.480;8.512;2024-03-25T02:47:23;6.40;99.90
44117;DHT22;29781;49.480;8.512;2024-03-25T02:49:49;6.50;99.90
44117;DHT22;29781;49.480;8.512;2024-03-25T02:52:15;6.50;99.90
44117;DHT22;29781;49.480;8.512;2024-03-25T02:54:40;6.50;99.90
44117;DHT22;29781;49.480;8.512;2024-03-25T02:57:06;6.50;99.90
44117;DHT22;29781;49.480;8.512;2024-03-25T02:59:31;6.50;99.90
44117;DHT22;29781;49.480;8.512;2024-03-25T03:01:57;6.60;99.90
44117;DHT22;29781;49.480;8.512;2024-03-25T03:04:22;6.50;99.90
44117;DHT22;29781;49.480;8.512;2024-03-25T03:06:48;6.60;99.90
44117;DHT22;29781;49.480;8.512;2024-03-25T03:09:13;6.60;99.90
44117;DHT22;29781;49.480;8.512;2024-03-25T03:11:39;6.50;99.90
44117;DHT22;29781;49.480;8.512;2024-03-25T03:14:04;6.60;99.90
44117;DHT22;29781;49.480;8.512;2024-03-25T03:16:30;6.60;99.90
44117;DHT22;29781;49.480;8.512;2024-03-25T03:18:56;6.60;99.90
44117;DHT22;29781;49.480;8.512;2024-03-25T03:21:21;6.50;99.90
44117;DHT22;29781;49.480;8.512;2024-03-25T03:23:47;6.50;99.90
44117;DHT22;29781;49.480;8.512;2024-03-25T03:26:12;6.50;99.90
44117;DHT22;29781;49.480;8.512;2024-03-25T03:28:39;6.50;99.90
44117;DHT22;29781;49.480;8.512;2024-03-25T03:31:05;6.50;99.90
44117;DHT22;29781;49.480;8.512;2024-03-25T03:33:31;6.40;99.90
44117;DHT22;29781;49.480;8.512;2024-03-25T03:35:56;6.40;99.90
44117;DHT22;29781;49.480;8.512;2024-03-25T03:38:22;6.40;99.90
44117;DHT22;29781;49.480;8.512;2024-03-25T03:41:01;6.30;99.90
44117;DHT22;29781;49.480;8.512;2024-03-25T03:43:26;6.20;99.90
44117;DHT22;29781;49.480;8.512;2024-03-25T03:45:52;6.10;99.90
44117;DHT22;29781;49.480;8.512;2024-03-25T03:48:18;5.90;99.90
44117;DHT22;29781;49.480;8.512;2024-03-25T03:50:44;5.90;99.90
44117;DHT22;29781;49.480;8.512;2024-03-25T03:53:09;5.90;99.90
44117;DHT22;29781;49.480;8.512;2024-03-25T03:55:35;5.90;99.90
44117;DHT22;29781;49.480;8.512;2024-03-25T03:58:01;6.00;99.90
44117;DHT22;29781;49.480;8.512;2024-03-25T04:00:26;6.10;99.90
44117;DHT22;29781;49.480;8.512;2024-03-25T04:02:52;6.10;99.90
44117;DHT22;29781;49.480;8.512;2024-03-25T04:05:18;6.10;99.90
44117;DHT22;29781;49.480;8.512;2024-03-25T04:07:44;6.10;99.90
44117;DHT22;29781;49.480;8.512;2024-03-25T04:10:09;6.10;99.90
44117;DHT22;29781;49.480;8.512;2024-03-25T04:12:36;6.10;99.90
44117;DHT22;29781;49.480;8.512;2024-03-25T04:15:02;6.00;99.90
44117;DHT22;29781;49.480;8.512;2024-03-25T04:17:28;6.00;99.90
44117;DHT22;29781;49.480;8.512;2024-03-25T04:19:54;5.90;99.90
44117;DHT22;29781;49.480;8.512;2024-03-25T04:22:19;5.80;99.90
44117;DHT22;29781;49.480;8.512;2024-03-25T04:24:45;5.80;99.90
44117;DHT22;29781;49.480;8.512;2024-03-25T04:27:10;5.80;99.90
44117;DHT22;29781;49.480;8.512;2024-03-25T04:29:36;5.80;99.90
44117;DHT22;29781;49.480;8.512;2024-03-25T04:32:01;5.80;99.90
44117;DHT22;29781;49.480;8.512;2024-03-25T04:34:28;6.00;99.90
44117;DHT22;29781;49.480;8.512;2024-03-25T04:36:53;6.00;99.90
44117;DHT22;29781;49.480;8.512;2024-03-25T04:39:19;6.00;99.90
44117;DHT22;29781;49.480;8.512;2024-03-25T04:41:44;6.00;99.90
44117;DHT22;29781;49.480;8.512;2024-03-25T04:44:11;6.00;99.90
44117;DHT22;29781;49.480;8.512;2024-03-25T04:46:37;5.90;99.90
44117;DHT22;29781;49.480;8.512;2024-03-25T04:49:02;5.90;99.90
44117;DHT22;29781;49.480;8.512;2024-03-25T04:51:28;5.90;99.90
44117;DHT22;29781;49.480;8.512;2024-03-25T04:53:53;5.90;99.90
44117;DHT22;29781;49.480;8.512;2024-03-25T04:56:19;5.90;99.90
44117;DHT22;29781;49.480;8.512;2024-03-25T04:58:45;5.90;99.90
44117;DHT22;29781;49.480;8.512;2024-03-25T05:01:10;5.90;99.90
44117;DHT22;29781;49.480;8.512;2024-03-25T05:03:36;5.90;99.90
44117;DHT22;29781;49.480;8.512;2024-03-25T05:06:01;5.90;99.90
44117;DHT22;29781;49.480;8.512;2024-03-25T05:08:27;5.90;99.90
44117;DHT22;29781;49.480;8.512;2024-03-25T05:10:52;5.80;99.90
44117;DHT22;29781;49.480;8.512;2024-03-25T05:13:18;5.80;99.90
44117;DHT22;29781;49.480;8.512;2024-03-25T05:15:50;5.80;99.90
44117;DHT22;29781;49.480;8.512;2024-03-25T05:18:17;5.80;99.90
44117;DHT22;29781;49.480;8.512;2024-03-25T05:20:43;5.80;99.90
44117;DHT22;29781;49.480;8.512;2024-03-25T05:23:08;5.80;99.90
44117;DHT22;29781;49.480;8.512;2024-03-25T05:25:35;5.80;99.90
44117;DHT22;29781;49.480;8.512;2024-03-25T05:28:00;5.80;99.90
44117;DHT22;29781;49.480;8.512;2024-03-25T05:30:26;5.80;99.90
44117;DHT22;29781;49.480;8.512;2024-03-25T05:32:51;5.80;99.90
44117;DHT22;29781;49.480;8.512;2024-03-25T05:35:17;5.80;99.90
44117;DHT22;29781;49.480;8.512;2024-03-25T05:37:42;5.70;99.90
44117;DHT22;29781;49.480;8.512;2024-03-25T05:40:08;5.70;99.90
44117;DHT22;29781;49.480;8.512;2024-03-25T05:42:37;5.60;99.90
44117;DHT22;29781;49.480;8.512;2024-03-25T05:45:02;5.60;99.90
44117;DHT22;29781;49.480;8.512;2024-03-25T05:47:28;5.60;99.90
44117;DHT22;29781;49.480;8.512;2024-03-25T05:49:53;5.50;99.90
44117;DHT22;29781;49.480;8.512;2024-03-25T05:52:19;5.50;99.90
44117;DHT22;29781;49.480;8.512;2024-03-25T05:54:45;5.50;99.90
44117;DHT22;29781;49.480;8.512;2024-03-25T05:57:10;5.60;99.90
44117;DHT22;29781;49.480;8.512;2024-03-25T05:59:36;5.60;99.90
44117;DHT22;29781;49.480;8.512;2024-03-25T06:02:01;5.60;99.90
44117;DHT22;29781;49.480;8.512;2024-03-25T06:04:27;5.60;99.90
44117;DHT22;29781;49.480;8.512;2024-03-25T06:06:52;5.50;99.90
44117;DHT22;29781;49.480;8.512;2024-03-25T06:09:18;5.50;99.90
44117;DHT22;29781;49.480;8.512;2024-03-25T06:11:43;5.60;99.90
44117;DHT22;29781;49.480;8.512;2024-03-25T06:14:09;5.60;99.90
44117;DHT22;29781;49.480;8.512;2024-03-25T06:16:34;5.60;99.90
44117;DHT22;29781;49.480;8.512;2024-03-25T06:19:00;5.70;99.90
44117;DHT22;29781;49.480;8.512;2024-03-25T06:21:25;5.80;99.90
44117;DHT22;29781;49.480;8.512;2024-03-25T06:23:54;5.80;99.90
44117;DHT22;29781;49.480;8.512;2024-03-25T06:26:19;5.90;99.90
44117;DHT22;29781;49.480;8.512;2024-03-25T06:28:44;5.90;99.90
44117;DHT22;29781;49.480;8.512;2024-03-25T06:31:11;6.00;99.90
44117;DHT22;29781;49.480;8.512;2024-03-25T06:33:55;6.00;99.90
44117;DHT22;29781;49.480;8.512;2024-03-25T06:36:39;6.00;99.90
44117;DHT22;29781;49.480;8.512;2024-03-25T06:39:04;6.00;99.90
44117;DHT22;29781;49.480;8.512;2024-03-25T06:41:30;6.10;99.90
44117;DHT22;29781;49.480;8.512;2024-03-25T06:43:55;6.10;99.90
44117;DHT22;29781;49.480;8.512;2024-03-25T06:46:27;6.00;99.90
44117;DHT22;29781;49.480;8.512;2024-03-25T06:48:52;6.10;99.90
44117;DHT22;29781;49.480;8.512;2024-03-25T06:51:18;6.20;99.90
44117;DHT22;29781;49.480;8.512;2024-03-25T06:53:44;6.40;99.90
44117;DHT22;29781;49.480;8.512;2024-03-25T06:56:09;6.60;99.90
44117;DHT22;29781;49.480;8.512;2024-03-25T06:58:35;6.80;99.90
44117;DHT22;29781;49.480;8.512;2024-03-25T07:01:08;6.90;99.90
44117;DHT22;29781;49.480;8.512;2024-03-25T07:03:34;7.20;99.90
44117;DHT22;29781;49.480;8.512;2024-03-25T07:06:00;7.40;99.90
44117;DHT22;29781;49.480;8.512;2024-03-25T07:08:26;7.50;99.90
44117;DHT22;29781;49.480;8.512;2024-03-25T07:10:53;7.60;99.90
44117;DHT22;29781;49.480;8.512;2024-03-25T07:13:18;7.70;99.90
44117;DHT22;29781;49.480;8.512;2024-03-25T07:15:44;8.00;99.90
44117;DHT22;29781;49.480;8.512;2024-03-25T07:18:10;8.10;99.90
44117;DHT22;29781;49.480;8.512;2024-03-25T07:20:39;8.20;99.90
44117;DHT22;29781;49.480;8.512;2024-03-25T07:23:05;8.40;99.90
44117;DHT22;29781;49.480;8.512;2024-03-25T07:25:31;8.40;99.90
44117;DHT22;29781;49.480;8.512;2024-03-25T07:27:57;8.40;99.90
44117;DHT22;29781;49.480;8.512;2024-03-25T07:30:22;8.10;99.90
44117;DHT22;29781;49.480;8.512;2024-03-25T07:32:50;8.30;99.90
44117;DHT22;29781;49.480;8.512;2024-03-25T07:35:16;8.40;99.90
44117;DHT22;29781;49.480;8.512;2024-03-25T07:37:44;8.40;99.90
44117;DHT22;29781;49.480;8.512;2024-03-25T07:40:10;9.00;99.90
44117;DHT22;29781;49.480;8.512;2024-03-25T07:42:39;9.50;99.90
44117;DHT22;29781;49.480;8.512;2024-03-25T07:45:05;9.60;99.90
44117;DHT22;29781;49.480;8.512;2024-03-25T07:47:31;9.60;99.90
44117;DHT22;29781;49.480;8.512;2024-03-25T07:49:57;10.00;99.90
44117;DHT22;29781;49.480;8.512;2024-03-25T07:52:24;9.90;99.90
44117;DHT22;29781;49.480;8.512;2024-03-25T07:54:50;10.80;99.90
44117;DHT22;29781;49.480;8.512;2024-03-25T07:57:16;11.50;99.90
44117;DHT22;29781;49.480;8.512;2024-03-25T07:59:42;12.00;99.90
44117;DHT22;29781;49.480;8.512;2024-03-25T08:02:07;11.60;99.90
44117;DHT22;29781;49.480;8.512;2024-03-25T08:04:33;12.00;99.90
44117;DHT22;29781;49.480;8.512;2024-03-25T08:06:58;11.80;99.90
44117;DHT22;29781;49.480;8.512;2024-03-25T08:09:24;11.40;99.90
44117;DHT22;29781;49.480;8.512;2024-03-25T08:11:49;10.70;99.90
44117;DHT22;29781;49.480;8.512;2024-03-25T08:14:15;10.10;99.90
44117;DHT22;29781;49.480;8.512;2024-03-25T08:16:40;10.40;99.90
44117;DHT22;29781;49.480;8.512;2024-03-25T08:19:06;11.00;99.90
44117;DHT22;29781;49.480;8.512;2024-03-25T08:21:32;11.50;99.90
44117;DHT22;29781;49.480;8.512;2024-03-25T08:23:57;11.80;99.90
44117;DHT22;29781;49.480;8.512;2024-03-25T08:26:23;11.60;99.90
44117;DHT22;29781;49.480;8.512;2024-03-25T08:28:48;11.00;99.90
44117;DHT22;29781;49.480;8.512;2024-03-25T08:31:17;10.40;99.90
44117;DHT22;29781;49.480;8.512;2024-03-25T08:33:42;11.00;99.90
44117;DHT22;29781;49.480;8.512;2024-03-25T08:36:08;11.50;99.90
44117;DHT22;29781;49.480;8.512;2024-03-25T08:38:34;11.70;99.90
44117;DHT22;29781;49.480;8.512;2024-03-25T08:40:59;11.80;99.90
44117;DHT22;29781;49.480;8.512;2024-03-25T08:43:25;11.40;99.90
44117;DHT22;29781;49.480;8.512;2024-03-25T08:45:50;10.50;99.90
44117;DHT22;29781;49.480;8.512;2024-03-25T08:48:16;9.40;99.90
44117;DHT22;29781;49.480;8.512;2024-03-25T08:50:42;8.90;99.90
44117;DHT22;29781;49.480;8.512;2024-03-25T08:53:08;9.10;99.90
44117;DHT22;29781;49.480;8.512;2024-03-25T08:55:33;8.80;99.90
44117;DHT22;29781;49.480;8.512;2024-03-25T08:57:59;8.70;99.90
44117;DHT22;29781;49.480;8.512;2024-03-25T09:00:28;8.90;99.90
44117;DHT22;29781;49.480;8.512;2024-03-25T09:02:54;10.40;99.90
44117;DHT22;29781;49.480;8.512;2024-03-25T09:05:20;11.10;99.90
44117;DHT22;29781;49.480;8.512;2024-03-25T09:07:48;11.80;99.90
44117;DHT22;29781;49.480;8.512;2024-03-25T09:10:16;12.00;99.90
44117;DHT22;29781;49.480;8.512;2024-03-25T09:13:00;11.80;99.90
44117;DHT22;29781;49.480;8.512;2024-03-25T09:15:26;10.60;99.90
44117;DHT22;29781;49.480;8.512;2024-03-25T09:17:51;10.20;99.90
44117;DHT22;29781;49.480;8.512;2024-03-25T09:20:17;11.10;99.90
44117;DHT22;29781;49.480;8.512;2024-03-25T09:22:43;12.50;99.90
44117;DHT22;29781;49.480;8.512;2024-03-25T09:25:09;13.30;99.90
44117;DHT22;29781;49.480;8.512;2024-03-25T09:27:35;13.70;99.90
44117;DHT22;29781;49.480;8.512;2024-03-25T09:30:01;14.10;99.90
44117;DHT22;29781;49.480;8.512;2024-03-25T09:32:26;13.20;99.90
44117;DHT22;29781;49.480;8.512;2024-03-25T09:34:52;12.80;99.90
44117;DHT22;29781;49.480;8.512;2024-03-25T09:37:18;13.50;99.90
44117;DHT22;29781;49.480;8.512;2024-03-25T09:39:43;14.10;99.90
44117;DHT22;29781;49.480;8.512;2024-03-25T09:42:14;14.00;99.90
44117;DHT22;29781;49.480;8.512;2024-03-25T09:44:40;14.10;99.90
44117;DHT22;29781;49.480;8.512;2024-03-25T09:47:06;15.00;99.90
44117;DHT22;29781;49.480;8.512;2024-03-25T09:49:32;15.40;99.90
44117;DHT22;29781;49.480;8.512;2024-03-25T09:51:58;15.40;99.90
44117;DHT22;29781;49.480;8.512;2024-03-25T09:54:25;15.80;99.90
44117;DHT22;29781;49.480;8.512;2024-03-25T09:56:51;15.60;99.90
44117;DHT22;29781;49.480;8.512;2024-03-25T09:59:17;15.40;99.90
44117;DHT22;29781;49.480;8.512;2024-03-25T10:01:43;15.60;99.90
44117;DHT22;29781;49.480;8.512;2024-03-25T10:04:09;15.40;99.90
44117;DHT22;29781;49.480;8.512;2024-03-25T10:06:35;16.10;99.90
44117;DHT22;29781;49.480;8.512;2024-03-25T10:09:04;17.10;99.90
44117;DHT22;29781;49.480;8.512;2024-03-25T10:11:31;17.10;99.90
44117;DHT22;29781;49.480;8.512;2024-03-25T10:14:03;16.60;99.90
44117;DHT22;29781;49.480;8.512;2024-03-25T10:16:28;14.20;99.90
44117;DHT22;29781;49.480;8.512;2024-03-25T10:18:54;12.00;99.90
44117;DHT22;29781;49.480;8.512;2024-03-25T10:21:22;11.40;99.90
44117;DHT22;29781;49.480;8.512;2024-03-25T10:23:48;11.50;99.90
44117;DHT22;29781;49.480;8.512;2024-03-25T10:26:28;11.40;99.90
44117;DHT22;29781;49.480;8.512;2024-03-25T10:29:06;13.60;99.90
44117;DHT22;29781;49.480;8.512;2024-03-25T10:31:33;14.40;99.90
44117;DHT22;29781;49.480;8.512;2024-03-25T10:33:58;14.00;99.90
44117;DHT22;29781;49.480;8.512;2024-03-25T10:36:25;15.30;99.90
44117;DHT22;29781;49.480;8.512;2024-03-25T10:38:55;16.10;99.50
44117;DHT22;29781;49.480;8.512;2024-03-25T10:41:22;16.60;98.80
44117;DHT22;29781;49.480;8.512;2024-03-25T10:43:48;15.30;99.70
44117;DHT22;29781;49.480;8.512;2024-03-25T10:46:23;14.60;99.90
44117;DHT22;29781;49.480;8.512;2024-03-25T10:49:12;15.10;99.90
44117;DHT22;29781;49.480;8.512;2024-03-25T10:51:42;15.40;99.40
44117;DHT22;29781;49.480;8.512;2024-03-25T10:54:09;15.90;99.10
44117;DHT22;29781;49.480;8.512;2024-03-25T10:56:36;14.20;99.90
44117;DHT22;29781;49.480;8.512;2024-03-25T10:59:02;14.50;99.90
44117;DHT22;29781;49.480;8.512;2024-03-25T11:01:29;15.30;99.90
44117;DHT22;29781;49.480;8.512;2024-03-25T11:03:55;15.40;99.90
44117;DHT22;29781;49.480;8.512;2024-03-25T11:06:21;16.00;98.10
44117;DHT22;29781;49.480;8.512;2024-03-25T11:08:56;16.30;97.50
44117;DHT22;29781;49.480;8.512;2024-03-25T11:11:23;16.20;96.90
44117;DHT22;29781;49.480;8.512;2024-03-25T11:13:48;16.40;96.60
44117;DHT22;29781;49.480;8.512;2024-03-25T11:16:14;15.90;94.70
44117;DHT22;29781;49.480;8.512;2024-03-25T11:18:51;13.30;97.50
44117;DHT22;29781;49.480;8.512;2024-03-25T11:21:24;13.10;99.70
44117;DHT22;29781;49.480;8.512;2024-03-25T11:23:50;16.10;96.70
44117;DHT22;29781;49.480;8.512;2024-03-25T11:28:45;16.90;95.40
44117;DHT22;29781;49.480;8.512;2024-03-25T11:31:11;17.00;94.70
44117;DHT22;29781;49.480;8.512;2024-03-25T11:33:40;16.70;94.30
44117;DHT22;29781;49.480;8.512;2024-03-25T11:36:06;16.50;93.50
44117;DHT22;29781;49.480;8.512;2024-03-25T11:38:32;16.70;93.30
44117;DHT22;29781;49.480;8.512;2024-03-25T11:40:57;16.80;93.60
44117;DHT22;29781;49.480;8.512;2024-03-25T11:43:23;15.00;95.30
44117;DHT22;29781;49.480;8.512;2024-03-25T11:45:49;14.90;96.60
44117;DHT22;29781;49.480;8.512;2024-03-25T11:48:16;15.50;95.80
44117;DHT22;29781;49.480;8.512;2024-03-25T11:50:44;16.50;95.20
44117;DHT22;29781;49.480;8.512;2024-03-25T11:53:10;17.20;94.70
44117;DHT22;29781;49.480;8.512;2024-03-25T11:55:36;15.60;95.10
44117;DHT22;29781;49.480;8.512;2024-03-25T11:58:01;14.70;95.80
44117;DHT22;29781;49.480;8.512;2024-03-25T12:00:27;14.40;96.20
44117;DHT22;29781;49.480;8.512;2024-03-25T12:02:54;15.30;95.20
44117;DHT22;29781;49.480;8.512;2024-03-25T12:05:20;16.10;94.10
44117;DHT22;29781;49.480;8.512;2024-03-25T12:07:46;16.10;94.00
44117;DHT22;29781;49.480;8.512;2024-03-25T12:10:11;16.90;93.30
44117;DHT22;29781;49.480;8.512;2024-03-25T12:12:56;17.40;91.80
44117;DHT22;29781;49.480;8.512;2024-03-25T12:15:22;16.60;91.90
44117;DHT22;29781;49.480;8.512;2024-03-25T12:17:48;16.00;93.20
44117;DHT22;29781;49.480;8.512;2024-03-25T12:20:14;17.10;91.70
44117;DHT22;29781;49.480;8.512;2024-03-25T12:22:40;17.70;91.60
44117;DHT22;29781;49.480;8.512;2024-03-25T12:25:07;18.10;90.60
44117;DHT22;29781;49.480;8.512;2024-03-25T12:27:34;17.50;91.10
44117;DHT22;29781;49.480;8.512;2024-03-25T12:30:03;17.70;90.40
44117;DHT22;29781;49.480;8.512;2024-03-25T12:32:39;17.20;91.50
44117;DHT22;29781;49.480;8.512;2024-03-25T12:35:08;16.90;90.70
44117;DHT22;29781;49.480;8.512;2024-03-25T12:37:36;16.60;91.60
44117;DHT22;29781;49.480;8.512;2024-03-25T12:40:02;16.10;91.20
44117;DHT22;29781;49.480;8.512;2024-03-25T12:42:30;15.10;91.40
44117;DHT22;29781;49.480;8.512;2024-03-25T12:44:55;15.10;92.00
44117;DHT22;29781;49.480;8.512;2024-03-25T12:47:21;15.10;93.00
44117;DHT22;29781;49.480;8.512;2024-03-25T12:49:47;14.60;93.00
44117;DHT22;29781;49.480;8.512;2024-03-25T12:52:15;12.90;94.30
44117;DHT22;29781;49.480;8.512;2024-03-25T12:54:41;13.20;95.00
44117;DHT22;29781;49.480;8.512;2024-03-25T12:57:07;12.40;95.60
44117;DHT22;29781;49.480;8.512;2024-03-25T12:59:33;12.60;94.90
44117;DHT22;29781;49.480;8.512;2024-03-25T13:01:58;12.70;94.70
44117;DHT22;29781;49.480;8.512;2024-03-25T13:04:25;12.00;95.70
44117;DHT22;29781;49.480;8.512;2024-03-25T13:06:58;11.60;96.00
44117;DHT22;29781;49.480;8.512;2024-03-25T13:09:23;11.30;96.60
44117;DHT22;29781;49.480;8.512;2024-03-25T13:11:51;11.10;97.70
44117;DHT22;29781;49.480;8.512;2024-03-25T13:14:17;11.10;97.90
44117;DHT22;29781;49.480;8.512;2024-03-25T13:16:42;11.20;98.40
44117;DHT22;29781;49.480;8.512;2024-03-25T13:19:08;11.40;97.70
44117;DHT22;29781;49.480;8.512;2024-03-25T13:21:34;11.70;96.40
44117;DHT22;29781;49.480;8.512;2024-03-25T13:23:59;12.10;94.30
44117;DHT22;29781;49.480;8.512;2024-03-25T13:26:25;11.70;94.30
44117;DHT22;29781;49.480;8.512;2024-03-25T13:28:51;11.50;93.60
44117;DHT22;29781;49.480;8.512;2024-03-25T13:31:17;11.20;94.80
44117;DHT22;29781;49.480;8.512;2024-03-25T13:33:42;11.50;94.60
44117;DHT22;29781;49.480;8.512;2024-03-25T13:36:08;12.30;94.20
44117;DHT22;29781;49.480;8.512;2024-03-25T13:38:34;12.70;93.70
44117;DHT22;29781;49.480;8.512;2024-03-25T13:41:01;12.30;93.20
44117;DHT22;29781;49.480;8.512;2024-03-25T13:43:26;12.70;95.10
44117;DHT22;29781;49.480;8.512;2024-03-25T13:45:52;12.00;93.80
44117;DHT22;29781;49.480;8.512;2024-03-25T13:48:18;12.50;92.90
44117;DHT22;29781;49.480;8.512;2024-03-25T13:50:43;12.80;92.20
44117;DHT22;29781;49.480;8.512;2024-03-25T13:53:09;13.10;91.90
44117;DHT22;29781;49.480;8.512;2024-03-25T13:55:35;13.20;92.10
44117;DHT22;29781;49.480;8.512;2024-03-25T13:58:01;13.20;92.80
44117;DHT22;29781;49.480;8.512;2024-03-25T14:00:27;12.60;92.20
44117;DHT22;29781;49.480;8.512;2024-03-25T14:02:54;12.10;94.10
44117;DHT22;29781;49.480;8.512;2024-03-25T14:05:20;11.80;94.10
44117;DHT22;29781;49.480;8.512;2024-03-25T14:07:46;12.10;94.40
44117;DHT22;29781;49.480;8.512;2024-03-25T14:10:12;11.90;94.10
44117;DHT22;29781;49.480;8.512;2024-03-25T14:12:37;12.30;94.40
44117;DHT22;29781;49.480;8.512;2024-03-25T14:15:04;12.60;94.20
44117;DHT22;29781;49.480;8.512;2024-03-25T14:17:29;13.00;94.20
44117;DHT22;29781;49.480;8.512;2024-03-25T14:19:56;13.20;93.70
44117;DHT22;29781;49.480;8.512;2024-03-25T14:22:22;13.30;93.60
44117;DHT22;29781;49.480;8.512;2024-03-25T14:24:48;12.90;93.20
44117;DHT22;29781;49.480;8.512;2024-03-25T14:27:14;12.70;94.20
44117;DHT22;29781;49.480;8.512;2024-03-25T14:29:40;12.50;94.90
44117;DHT22;29781;49.480;8.512;2024-03-25T14:32:06;12.80;93.90
44117;DHT22;29781;49.480;8.512;2024-03-25T14:34:37;12.50;94.10
44117;DHT22;29781;49.480;8.512;2024-03-25T14:37:03;12.20;94.10
44117;DHT22;29781;49.480;8.512;2024-03-25T14:39:31;12.00;95.10
44117;DHT22;29781;49.480;8.512;2024-03-25T14:41:57;12.10;95.30
44117;DHT22;29781;49.480;8.512;2024-03-25T14:44:22;12.60;94.50
44117;DHT22;29781;49.480;8.512;2024-03-25T14:46:48;12.80;94.30
44117;DHT22;29781;49.480;8.512;2024-03-25T14:49:17;13.00;94.10
44117;DHT22;29781;49.480;8.512;2024-03-25T14:51:43;12.60;94.30
44117;DHT22;29781;49.480;8.512;2024-03-25T14:54:09;12.30;94.60
44117;DHT22;29781;49.480;8.512;2024-03-25T14:56:34;12.10;94.80
44117;DHT22;29781;49.480;8.512;2024-03-25T14:59:00;12.10;95.30
44117;DHT22;29781;49.480;8.512;2024-03-25T15:01:25;12.40;95.90
44117;DHT22;29781;49.480;8.512;2024-03-25T15:03:51;12.80;94.60
44117;DHT22;29781;49.480;8.512;2024-03-25T15:06:22;12.80;94.30
44117;DHT22;29781;49.480;8.512;2024-03-25T15:08:48;12.80;94.70
44117;DHT22;29781;49.480;8.512;2024-03-25T15:11:13;13.10;94.70
44117;DHT22;29781;49.480;8.512;2024-03-25T15:13:39;13.10;94.60
44117;DHT22;29781;49.480;8.512;2024-03-25T15:16:06;13.20;94.60
44117;DHT22;29781;49.480;8.512;2024-03-25T15:18:35;13.20;94.40
44117;DHT22;29781;49.480;8.512;2024-03-25T15:21:02;13.40;93.50
44117;DHT22;29781;49.480;8.512;2024-03-25T15:23:27;13.30;93.40
44117;DHT22;29781;49.480;8.512;2024-03-25T15:25:53;13.30;92.70
44117;DHT22;29781;49.480;8.512;2024-03-25T15:28:19;13.00;93.00
44117;DHT22;29781;49.480;8.512;2024-03-25T15:30:46;12.80;94.10
44117;DHT22;29781;49.480;8.512;2024-03-25T15:33:11;13.10;92.30
44117;DHT22;29781;49.480;8.512;2024-03-25T15:35:37;13.20;92.10
44117;DHT22;29781;49.480;8.512;2024-03-25T15:38:10;13.10;92.40